sensor_id;sensor_type;location;lat;lon;timestamp;P1;durP1;ratioP1;P2;durP2;ratioP2
7340;SDS011;6870;50.944;6.932;2023-05-07T00:01:29;2.00;;;1.70;;
7340;SDS011;6870;50.944;6.932;2023-05-07T00:03:59;4.50;;;2.43;;
7340;SDS011;6870;50.944;6.932;2023-05-07T00:06:27;2.47;;;2.00;;
7340;SDS011;6870;50.944;6.932;2023-05-07T00:08:56;8.30;;;2.70;;
7340;SDS011;6870;50.944;6.932;2023-05-07T00:11:24;2.67;;;2.00;;
7340;SDS011;6870;50.944;6.932;2023-05-07T00:13:53;2.87;;;2.00;;
7340;SDS011;6870;50.944;6.932;2023-05-07T00:16:21;3.07;;;1.87;;
7340;SDS011;6870;50.944;6.932;2023-05-07T00:18:49;4.10;;;2.10;;
7340;SDS011;6870;50.944;6.932;2023-05-07T00:21:18;3.73;;;1.80;;
7340;SDS011;6870;50.944;6.932;2023-05-07T00:23:47;3.13;;;2.20;;
7340;SDS011;6870;50.944;6.932;2023-05-07T00:26:15;2.70;;;1.67;;
7340;SDS011;6870;50.944;6.932;2023-05-07T00:28:43;3.77;;;1.93;;
7340;SDS011;6870;50.944;6.932;2023-05-07T00:31:12;3.87;;;1.50;;
7340;SDS011;6870;50.944;6.932;2023-05-07T00:33:40;3.03;;;2.10;;
7340;SDS011;6870;50.944;6.932;2023-05-07T00:36:08;2.80;;;1.90;;
7340;SDS011;6870;50.944;6.932;2023-05-07T00:38:37;3.57;;;1.90;;
7340;SDS011;6870;50.944;6.932;2023-05-07T00:41:05;5.40;;;2.30;;
7340;SDS011;6870;50.944;6.932;2023-05-07T00:43:33;4.40;;;2.47;;
7340;SDS011;6870;50.944;6.932;2023-05-07T00:46:01;1.97;;;1.50;;
7340;SDS011;6870;50.944;6.932;2023-05-07T00:48:29;3.60;;;2.30;;
7340;SDS011;6870;50.944;6.932;2023-05-07T00:50:58;2.97;;;1.73;;
7340;SDS011;6870;50.944;6.932;2023-05-07T00:53:26;3.70;;;1.77;;
7340;SDS011;6870;50.944;6.932;2023-05-07T00:55:55;2.40;;;1.80;;
7340;SDS011;6870;50.944;6.932;2023-05-07T00:58:24;3.07;;;1.77;;
7340;SDS011;6870;50.944;6.932;2023-05-07T01:00:52;4.20;;;2.10;;
7340;SDS011;6870;50.944;6.932;2023-05-07T01:03:20;2.97;;;2.00;;
7340;SDS011;6870;50.944;6.932;2023-05-07T01:05:49;9.57;;;2.13;;
7340;SDS011;6870;50.944;6.932;2023-05-07T01:08:18;5.53;;;1.70;;
7340;SDS011;6870;50.944;6.932;2023-05-07T01:10:47;3.57;;;2.07;;
7340;SDS011;6870;50.944;6.932;2023-05-07T01:13:17;2.20;;;1.70;;
7340;SDS011;6870;50.944;6.932;2023-05-07T01:15:46;4.70;;;2.20;;
7340;SDS011;6870;50.944;6.932;2023-05-07T01:18:15;3.13;;;2.13;;
7340;SDS011;6870;50.944;6.932;2023-05-07T01:20:43;2.83;;;1.60;;
7340;SDS011;6870;50.944;6.932;2023-05-07T01:23:13;5.50;;;1.93;;
7340;SDS011;6870;50.944;6.932;2023-05-07T01:25:42;4.13;;;1.60;;
7340;SDS011;6870;50.944;6.932;2023-05-07T01:28:10;3.27;;;1.73;;
7340;SDS011;6870;50.944;6.932;2023-05-07T01:30:38;3.60;;;1.80;;
7340;SDS011;6870;50.944;6.932;2023-05-07T01:33:12;3.63;;;2.30;;
7340;SDS011;6870;50.944;6.932;2023-05-07T01:35:43;8.03;;;2.23;;
7340;SDS011;6870;50.944;6.932;2023-05-07T01:38:16;3.80;;;1.90;;
7340;SDS011;6870;50.944;6.932;2023-05-07T01:40:45;3.63;;;1.80;;
7340;SDS011;6870;50.944;6.932;2023-05-07T01:43:14;4.73;;;2.20;;
7340;SDS011;6870;50.944;6.932;2023-05-07T01:45:42;4.37;;;1.73;;
7340;SDS011;6870;50.944;6.932;2023-05-07T01:48:11;2.20;;;1.43;;
7340;SDS011;6870;50.944;6.932;2023-05-07T01:50:40;2.73;;;1.90;;
7340;SDS011;6870;50.944;6.932;2023-05-07T01:53:09;2.57;;;1.83;;
7340;SDS011;6870;50.944;6.932;2023-05-07T01:55:38;3.60;;;1.83;;
7340;SDS011;6870;50.944;6.932;2023-05-07T01:58:06;3.67;;;2.03;;
7340;SDS011;6870;50.944;6.932;2023-05-07T02:00:34;3.40;;;1.93;;
7340;SDS011;6870;50.944;6.932;2023-05-07T02:03:03;1.90;;;1.70;;
7340;SDS011;6870;50.944;6.932;2023-05-07T02:05:31;1.80;;;1.13;;
7340;SDS011;6870;50.944;6.932;2023-05-07T02:07:59;3.20;;;1.57;;
7340;SDS011;6870;50.944;6.932;2023-05-07T02:10:27;4.47;;;1.90;;
7340;SDS011;6870;50.944;6.932;2023-05-07T02:12:56;3.33;;;1.93;;
7340;SDS011;6870;50.944;6.932;2023-05-07T02:15:24;2.07;;;1.63;;
7340;SDS011;6870;50.944;6.932;2023-05-07T02:17:59;2.80;;;2.00;;
7340;SDS011;6870;50.944;6.932;2023-05-07T02:20:29;3.77;;;1.90;;
7340;SDS011;6870;50.944;6.932;2023-05-07T02:22:57;2.33;;;1.50;;
7340;SDS011;6870;50.944;6.932;2023-05-07T02:25:25;2.97;;;1.83;;
7340;SDS011;6870;50.944;6.932;2023-05-07T02:27:53;2.23;;;1.77;;
7340;SDS011;6870;50.944;6.932;2023-05-07T02:30:22;3.27;;;2.00;;
7340;SDS011;6870;50.944;6.932;2023-05-07T02:32:52;4.10;;;1.90;;
7340;SDS011;6870;50.944;6.932;2023-05-07T02:35:21;3.23;;;1.73;;
7340;SDS011;6870;50.944;6.932;2023-05-07T02:37:49;3.33;;;1.57;;
7340;SDS011;6870;50.944;6.932;2023-05-07T02:40:17;2.63;;;1.43;;
7340;SDS011;6870;50.944;6.932;2023-05-07T02:42:45;3.40;;;1.87;;
7340;SDS011;6870;50.944;6.932;2023-05-07T02:45:14;2.33;;;1.70;;
7340;SDS011;6870;50.944;6.932;2023-05-07T02:47:43;2.90;;;2.03;;
7340;SDS011;6870;50.944;6.932;2023-05-07T02:50:11;3.10;;;1.53;;
7340;SDS011;6870;50.944;6.932;2023-05-07T02:52:40;3.87;;;2.00;;
7340;SDS011;6870;50.944;6.932;2023-05-07T02:55:08;2.70;;;2.10;;
7340;SDS011;6870;50.944;6.932;2023-05-07T02:57:36;2.83;;;1.70;;
7340;SDS011;6870;50.944;6.932;2023-05-07T03:00:12;3.77;;;1.53;;
7340;SDS011;6870;50.944;6.932;2023-05-07T03:02:41;3.60;;;2.00;;
7340;SDS011;6870;50.944;6.932;2023-05-07T03:05:11;3.20;;;1.60;;
7340;SDS011;6870;50.944;6.932;2023-05-07T03:07:40;2.50;;;1.90;;
7340;SDS011;6870;50.944;6.932;2023-05-07T03:10:11;2.27;;;1.70;;
7340;SDS011;6870;50.944;6.932;2023-05-07T03:12:39;2.10;;;1.60;;
7340;SDS011;6870;50.944;6.932;2023-05-07T03:15:08;2.40;;;1.40;;
7340;SDS011;6870;50.944;6.932;2023-05-07T03:17:37;2.73;;;1.80;;
7340;SDS011;6870;50.944;6.932;2023-05-07T03:20:07;4.53;;;2.03;;
7340;SDS011;6870;50.944;6.932;2023-05-07T03:22:37;6.10;;;1.50;;
7340;SDS011;6870;50.944;6.932;2023-05-07T03:25:06;3.10;;;1.70;;
7340;SDS011;6870;50.944;6.932;2023-05-07T03:27:35;4.13;;;1.60;;
7340;SDS011;6870;50.944;6.932;2023-05-07T03:30:04;7.70;;;1.60;;
7340;SDS011;6870;50.944;6.932;2023-05-07T03:32:35;5.23;;;1.47;;
7340;SDS011;6870;50.944;6.932;2023-05-07T03:35:03;3.97;;;1.93;;
7340;SDS011;6870;50.944;6.932;2023-05-07T03:37:33;2.13;;;1.23;;
7340;SDS011;6870;50.944;6.932;2023-05-07T03:40:01;2.60;;;1.60;;
7340;SDS011;6870;50.944;6.932;2023-05-07T03:42:30;5.90;;;1.70;;
7340;SDS011;6870;50.944;6.932;2023-05-07T03:44:58;3.03;;;1.50;;
7340;SDS011;6870;50.944;6.932;2023-05-07T03:47:26;3.53;;;2.00;;
7340;SDS011;6870;50.944;6.932;2023-05-07T03:49:54;2.27;;;1.50;;
7340;SDS011;6870;50.944;6.932;2023-05-07T03:52:23;9.53;;;1.73;;
7340;SDS011;6870;50.944;6.932;2023-05-07T03:54:53;2.93;;;1.80;;
7340;SDS011;6870;50.944;6.932;2023-05-07T03:57:21;2.90;;;2.00;;
7340;SDS011;6870;50.944;6.932;2023-05-07T03:59:49;3.17;;;1.30;;
7340;SDS011;6870;50.944;6.932;2023-05-07T04:02:17;3.10;;;1.53;;
7340;SDS011;6870;50.944;6.932;2023-05-07T04:04:45;2.63;;;1.40;;
7340;SDS011;6870;50.944;6.932;2023-05-07T04:07:15;1.80;;;1.37;;
7340;SDS011;6870;50.944;6.932;2023-05-07T04:09:43;1.77;;;1.37;;
7340;SDS011;6870;50.944;6.932;2023-05-07T04:12:13;2.40;;;1.60;;
7340;SDS011;6870;50.944;6.932;2023-05-07T04:14:42;2.70;;;1.67;;
7340;SDS011;6870;50.944;6.932;2023-05-07T04:17:10;3.00;;;1.53;;
7340;SDS011;6870;50.944;6.932;2023-05-07T04:19:38;2.17;;;1.63;;
7340;SDS011;6870;50.944;6.932;2023-05-07T04:22:11;2.30;;;1.57;;
7340;SDS011;6870;50.944;6.932;2023-05-07T04:24:39;4.43;;;1.67;;
7340;SDS011;6870;50.944;6.932;2023-05-07T04:27:07;5.27;;;1.70;;
7340;SDS011;6870;50.944;6.932;2023-05-07T04:29:36;4.60;;;1.30;;
7340;SDS011;6870;50.944;6.932;2023-05-07T04:32:08;2.93;;;1.60;;
7340;SDS011;6870;50.944;6.932;2023-05-07T04:34:36;3.83;;;2.10;;
7340;SDS011;6870;50.944;6.932;2023-05-07T04:37:04;4.33;;;1.63;;
7340;SDS011;6870;50.944;6.932;2023-05-07T04:39:32;2.20;;;1.40;;
7340;SDS011;6870;50.944;6.932;2023-05-07T04:42:01;5.00;;;1.40;;
7340;SDS011;6870;50.944;6.932;2023-05-07T04:44:30;2.30;;;1.50;;
7340;SDS011;6870;50.944;6.932;2023-05-07T04:46:59;2.47;;;1.43;;
7340;SDS011;6870;50.944;6.932;2023-05-07T04:49:27;3.47;;;1.60;;
7340;SDS011;6870;50.944;6.932;2023-05-07T04:51:55;5.97;;;1.43;;
7340;SDS011;6870;50.944;6.932;2023-05-07T04:54:23;5.43;;;2.23;;
7340;SDS011;6870;50.944;6.932;2023-05-07T04:56:51;2.63;;;1.87;;
7340;SDS011;6870;50.944;6.932;2023-05-07T04:59:19;4.77;;;1.90;;
7340;SDS011;6870;50.944;6.932;2023-05-07T05:01:47;3.40;;;1.50;;
7340;SDS011;6870;50.944;6.932;2023-05-07T05:04:16;5.03;;;1.63;;
7340;SDS011;6870;50.944;6.932;2023-05-07T05:06:44;2.00;;;1.10;;
7340;SDS011;6870;50.944;6.932;2023-05-07T05:09:12;2.67;;;1.37;;
7340;SDS011;6870;50.944;6.932;2023-05-07T05:11:42;3.50;;;1.30;;
7340;SDS011;6870;50.944;6.932;2023-05-07T05:14:10;2.30;;;1.47;;
7340;SDS011;6870;50.944;6.932;2023-05-07T05:16:38;1.80;;;1.30;;
7340;SDS011;6870;50.944;6.932;2023-05-07T05:19:06;2.00;;;1.27;;
7340;SDS011;6870;50.944;6.932;2023-05-07T05:21:35;2.50;;;1.60;;
7340;SDS011;6870;50.944;6.932;2023-05-07T05:24:03;1.90;;;1.50;;
7340;SDS011;6870;50.944;6.932;2023-05-07T05:26:32;1.83;;;1.33;;
7340;SDS011;6870;50.944;6.932;2023-05-07T05:29:00;3.10;;;1.57;;
7340;SDS011;6870;50.944;6.932;2023-05-07T05:31:28;4.67;;;1.73;;
7340;SDS011;6870;50.944;6.932;2023-05-07T05:33:56;3.37;;;1.60;;
7340;SDS011;6870;50.944;6.932;2023-05-07T05:36:24;3.97;;;1.70;;
7340;SDS011;6870;50.944;6.932;2023-05-07T05:38:53;6.03;;;1.83;;
7340;SDS011;6870;50.944;6.932;2023-05-07T05:41:22;8.87;;;2.23;;
7340;SDS011;6870;50.944;6.932;2023-05-07T05:43:51;5.57;;;1.90;;
7340;SDS011;6870;50.944;6.932;2023-05-07T05:46:19;7.30;;;2.03;;
7340;SDS011;6870;50.944;6.932;2023-05-07T05:48:47;8.40;;;2.00;;
7340;SDS011;6870;50.944;6.932;2023-05-07T05:51:15;5.63;;;1.93;;
7340;SDS011;6870;50.944;6.932;2023-05-07T05:53:43;8.20;;;1.90;;
7340;SDS011;6870;50.944;6.932;2023-05-07T05:56:12;14.80;;;2.07;;
7340;SDS011;6870;50.944;6.932;2023-05-07T05:58:41;4.90;;;2.13;;
7340;SDS011;6870;50.944;6.932;2023-05-07T06:01:09;6.43;;;2.10;;
7340;SDS011;6870;50.944;6.932;2023-05-07T06:03:38;8.20;;;2.07;;
7340;SDS011;6870;50.944;6.932;2023-05-07T06:06:06;4.13;;;1.50;;
7340;SDS011;6870;50.944;6.932;2023-05-07T06:08:34;2.63;;;1.30;;
7340;SDS011;6870;50.944;6.932;2023-05-07T06:11:02;6.03;;;1.60;;
7340;SDS011;6870;50.944;6.932;2023-05-07T06:13:31;8.00;;;1.33;;
7340;SDS011;6870;50.944;6.932;2023-05-07T06:15:59;3.27;;;1.47;;
7340;SDS011;6870;50.944;6.932;2023-05-07T06:18:27;5.90;;;2.20;;
7340;SDS011;6870;50.944;6.932;2023-05-07T06:20:56;3.47;;;2.17;;
7340;SDS011;6870;50.944;6.932;2023-05-07T06:23:24;2.80;;;1.30;;
7340;SDS011;6870;50.944;6.932;2023-05-07T06:25:52;2.57;;;1.27;;
7340;SDS011;6870;50.944;6.932;2023-05-07T06:28:20;3.70;;;1.40;;
7340;SDS011;6870;50.944;6.932;2023-05-07T06:30:49;2.27;;;1.60;;
7340;SDS011;6870;50.944;6.932;2023-05-07T06:33:17;1.60;;;1.20;;
7340;SDS011;6870;50.944;6.932;2023-05-07T06:35:46;3.80;;;1.53;;
7340;SDS011;6870;50.944;6.932;2023-05-07T06:38:14;1.83;;;1.17;;
7340;SDS011;6870;50.944;6.932;2023-05-07T06:40:42;2.17;;;1.70;;
7340;SDS011;6870;50.944;6.932;2023-05-07T06:43:10;4.40;;;1.50;;
7340;SDS011;6870;50.944;6.932;2023-05-07T06:45:38;4.50;;;1.97;;
7340;SDS011;6870;50.944;6.932;2023-05-07T06:48:07;3.60;;;1.33;;
7340;SDS011;6870;50.944;6.932;2023-05-07T06:50:35;2.60;;;1.87;;
7340;SDS011;6870;50.944;6.932;2023-05-07T06:53:03;1.70;;;1.17;;
7340;SDS011;6870;50.944;6.932;2023-05-07T06:55:31;2.27;;;1.57;;
7340;SDS011;6870;50.944;6.932;2023-05-07T06:57:59;2.07;;;1.43;;
7340;SDS011;6870;50.944;6.932;2023-05-07T07:00:27;2.83;;;1.80;;
7340;SDS011;6870;50.944;6.932;2023-05-07T07:02:56;2.27;;;1.43;;
7340;SDS011;6870;50.944;6.932;2023-05-07T07:05:27;3.50;;;1.80;;
7340;SDS011;6870;50.944;6.932;2023-05-07T07:07:54;2.43;;;1.57;;
7340;SDS011;6870;50.944;6.932;2023-05-07T07:10:23;1.77;;;1.47;;
7340;SDS011;6870;50.944;6.932;2023-05-07T07:12:51;2.60;;;1.30;;
7340;SDS011;6870;50.944;6.932;2023-05-07T07:15:19;2.30;;;1.60;;
7340;SDS011;6870;50.944;6.932;2023-05-07T07:17:47;1.90;;;1.20;;
7340;SDS011;6870;50.944;6.932;2023-05-07T07:20:16;1.90;;;1.40;;
7340;SDS011;6870;50.944;6.932;2023-05-07T07:22:45;2.50;;;1.73;;
7340;SDS011;6870;50.944;6.932;2023-05-07T07:25:13;2.47;;;1.37;;
7340;SDS011;6870;50.944;6.932;2023-05-07T07:27:41;3.57;;;1.60;;
7340;SDS011;6870;50.944;6.932;2023-05-07T07:30:09;2.30;;;1.50;;
7340;SDS011;6870;50.944;6.932;2023-05-07T07:32:38;3.97;;;1.60;;
7340;SDS011;6870;50.944;6.932;2023-05-07T07:35:07;3.07;;;1.77;;
7340;SDS011;6870;50.944;6.932;2023-05-07T07:37:36;3.03;;;1.80;;
7340;SDS011;6870;50.944;6.932;2023-05-07T07:40:06;4.70;;;3.20;;
7340;SDS011;6870;50.944;6.932;2023-05-07T07:42:36;7.13;;;4.67;;
7340;SDS011;6870;50.944;6.932;2023-05-07T07:45:04;10.40;;;4.57;;
7340;SDS011;6870;50.944;6.932;2023-05-07T07:47:34;6.27;;;2.83;;
7340;SDS011;6870;50.944;6.932;2023-05-07T07:50:02;3.47;;;2.20;;
7340;SDS011;6870;50.944;6.932;2023-05-07T07:52:31;4.70;;;2.90;;
7340;SDS011;6870;50.944;6.932;2023-05-07T07:55:00;3.60;;;2.60;;
7340;SDS011;6870;50.944;6.932;2023-05-07T07:57:30;5.60;;;2.93;;
7340;SDS011;6870;50.944;6.932;2023-05-07T07:59:58;5.50;;;2.97;;
7340;SDS011;6870;50.944;6.932;2023-05-07T08:02:27;3.77;;;2.27;;
7340;SDS011;6870;50.944;6.932;2023-05-07T08:04:55;5.50;;;2.93;;
7340;SDS011;6870;50.944;6.932;2023-05-07T08:07:23;4.17;;;1.80;;
7340;SDS011;6870;50.944;6.932;2023-05-07T08:09:51;3.93;;;2.70;;
7340;SDS011;6870;50.944;6.932;2023-05-07T08:12:19;4.50;;;2.23;;
7340;SDS011;6870;50.944;6.932;2023-05-07T08:14:48;4.03;;;2.47;;
7340;SDS011;6870;50.944;6.932;2023-05-07T08:17:16;7.20;;;2.30;;
7340;SDS011;6870;50.944;6.932;2023-05-07T08:19:44;6.93;;;2.57;;
7340;SDS011;6870;50.944;6.932;2023-05-07T08:22:12;6.17;;;2.90;;
7340;SDS011;6870;50.944;6.932;2023-05-07T08:24:41;3.30;;;2.40;;
7340;SDS011;6870;50.944;6.932;2023-05-07T08:27:09;7.67;;;2.67;;
7340;SDS011;6870;50.944;6.932;2023-05-07T08:29:37;10.13;;;2.70;;
7340;SDS011;6870;50.944;6.932;2023-05-07T08:32:07;6.40;;;2.67;;
7340;SDS011;6870;50.944;6.932;2023-05-07T08:34:35;13.80;;;3.30;;
7340;SDS011;6870;50.944;6.932;2023-05-07T08:37:03;8.43;;;3.37;;
7340;SDS011;6870;50.944;6.932;2023-05-07T08:39:31;11.57;;;3.33;;
7340;SDS011;6870;50.944;6.932;2023-05-07T08:42:00;6.43;;;2.80;;
7340;SDS011;6870;50.944;6.932;2023-05-07T08:44:30;12.37;;;3.17;;
7340;SDS011;6870;50.944;6.932;2023-05-07T08:47:01;12.10;;;3.70;;
7340;SDS011;6870;50.944;6.932;2023-05-07T08:49:31;7.83;;;3.03;;
7340;SDS011;6870;50.944;6.932;2023-05-07T08:52:01;11.47;;;3.33;;
7340;SDS011;6870;50.944;6.932;2023-05-07T08:54:29;11.47;;;3.50;;
7340;SDS011;6870;50.944;6.932;2023-05-07T08:56:58;9.90;;;2.77;;
7340;SDS011;6870;50.944;6.932;2023-05-07T08:59:27;6.00;;;3.07;;
7340;SDS011;6870;50.944;6.932;2023-05-07T09:01:55;8.20;;;2.83;;
7340;SDS011;6870;50.944;6.932;2023-05-07T09:04:23;5.60;;;2.97;;
7340;SDS011;6870;50.944;6.932;2023-05-07T09:06:52;5.43;;;2.73;;
7340;SDS011;6870;50.944;6.932;2023-05-07T09:09:21;4.80;;;2.47;;
7340;SDS011;6870;50.944;6.932;2023-05-07T09:11:54;13.63;;;2.93;;
7340;SDS011;6870;50.944;6.932;2023-05-07T09:14:24;4.97;;;2.30;;
7340;SDS011;6870;50.944;6.932;2023-05-07T09:16:53;7.83;;;2.70;;
7340;SDS011;6870;50.944;6.932;2023-05-07T09:19:24;5.13;;;2.70;;
7340;SDS011;6870;50.944;6.932;2023-05-07T09:22:01;5.00;;;2.43;;
7340;SDS011;6870;50.944;6.932;2023-05-07T09:24:33;4.43;;;2.60;;
7340;SDS011;6870;50.944;6.932;2023-05-07T09:27:04;4.60;;;2.40;;
7340;SDS011;6870;50.944;6.932;2023-05-07T09:29:33;6.80;;;2.13;;
7340;SDS011;6870;50.944;6.932;2023-05-07T09:32:01;9.67;;;2.60;;
7340;SDS011;6870;50.944;6.932;2023-05-07T09:34:31;16.23;;;2.60;;
7340;SDS011;6870;50.944;6.932;2023-05-07T09:37:01;3.13;;;1.90;;
7340;SDS011;6870;50.944;6.932;2023-05-07T09:39:40;4.57;;;2.50;;
7340;SDS011;6870;50.944;6.932;2023-05-07T09:42:10;6.90;;;2.63;;
7340;SDS011;6870;50.944;6.932;2023-05-07T09:44:38;5.33;;;2.30;;
7340;SDS011;6870;50.944;6.932;2023-05-07T09:47:07;3.10;;;2.30;;
7340;SDS011;6870;50.944;6.932;2023-05-07T09:49:36;8.40;;;2.07;;
7340;SDS011;6870;50.944;6.932;2023-05-07T09:52:09;4.83;;;2.23;;
7340;SDS011;6870;50.944;6.932;2023-05-07T09:54:38;4.03;;;2.00;;
7340;SDS011;6870;50.944;6.932;2023-05-07T09:57:09;3.23;;;1.90;;
7340;SDS011;6870;50.944;6.932;2023-05-07T09:59:39;4.03;;;1.97;;
7340;SDS011;6870;50.944;6.932;2023-05-07T10:02:10;6.37;;;2.27;;
7340;SDS011;6870;50.944;6.932;2023-05-07T10:04:40;4.30;;;1.70;;
7340;SDS011;6870;50.944;6.932;2023-05-07T10:07:09;2.77;;;1.87;;
7340;SDS011;6870;50.944;6.932;2023-05-07T10:09:38;6.23;;;2.43;;
7340;SDS011;6870;50.944;6.932;2023-05-07T10:12:09;4.07;;;2.47;;
7340;SDS011;6870;50.944;6.932;2023-05-07T10:14:37;11.77;;;3.70;;
7340;SDS011;6870;50.944;6.932;2023-05-07T10:17:05;3.77;;;2.10;;
7340;SDS011;6870;50.944;6.932;2023-05-07T10:19:34;4.60;;;2.67;;
7340;SDS011;6870;50.944;6.932;2023-05-07T10:22:05;9.73;;;3.40;;
7340;SDS011;6870;50.944;6.932;2023-05-07T10:24:35;7.90;;;2.50;;
7340;SDS011;6870;50.944;6.932;2023-05-07T10:27:05;5.10;;;2.60;;
7340;SDS011;6870;50.944;6.932;2023-05-07T10:29:39;4.63;;;2.33;;
7340;SDS011;6870;50.944;6.932;2023-05-07T10:32:38;4.17;;;2.10;;
7340;SDS011;6870;50.944;6.932;2023-05-07T10:35:10;5.63;;;2.00;;
7340;SDS011;6870;50.944;6.932;2023-05-07T10:37:43;9.90;;;2.97;;
7340;SDS011;6870;50.944;6.932;2023-05-07T10:40:14;6.40;;;2.83;;
7340;SDS011;6870;50.944;6.932;2023-05-07T10:42:53;5.33;;;2.40;;
7340;SDS011;6870;50.944;6.932;2023-05-07T10:45:23;5.50;;;2.57;;
7340;SDS011;6870;50.944;6.932;2023-05-07T10:48:08;3.43;;;1.70;;
7340;SDS011;6870;50.944;6.932;2023-05-07T10:50:41;6.30;;;1.83;;
7340;SDS011;6870;50.944;6.932;2023-05-07T10:53:24;16.30;;;3.17;;
7340;SDS011;6870;50.944;6.932;2023-05-07T10:58:54;3.60;;;2.70;;
7340;SDS011;6870;50.944;6.932;2023-05-07T11:04:17;14.97;;;3.00;;
7340;SDS011;6870;50.944;6.932;2023-05-07T11:07:10;4.47;;;2.03;;
7340;SDS011;6870;50.944;6.932;2023-05-07T11:09:59;5.70;;;2.40;;
7340;SDS011;6870;50.944;6.932;2023-05-07T11:12:55;3.37;;;3.00;;
7340;SDS011;6870;50.944;6.932;2023-05-07T11:15:33;3.50;;;2.43;;
7340;SDS011;6870;50.944;6.932;2023-05-07T11:18:08;6.10;;;1.90;;
7340;SDS011;6870;50.944;6.932;2023-05-07T11:20:47;3.13;;;2.20;;
7340;SDS011;6870;50.944;6.932;2023-05-07T11:26:28;7.87;;;3.63;;
7340;SDS011;6870;50.944;6.932;2023-05-07T11:28:59;4.00;;;2.57;;
7340;SDS011;6870;50.944;6.932;2023-05-07T11:31:27;3.80;;;2.53;;
7340;SDS011;6870;50.944;6.932;2023-05-07T11:33:56;4.30;;;2.13;;
7340;SDS011;6870;50.944;6.932;2023-05-07T11:36:25;2.73;;;2.27;;
7340;SDS011;6870;50.944;6.932;2023-05-07T11:38:59;2.53;;;1.80;;
7340;SDS011;6870;50.944;6.932;2023-05-07T11:41:33;3.80;;;2.17;;
7340;SDS011;6870;50.944;6.932;2023-05-07T11:44:04;2.90;;;2.10;;
7340;SDS011;6870;50.944;6.932;2023-05-07T11:46:32;3.37;;;2.23;;
7340;SDS011;6870;50.944;6.932;2023-05-07T11:49:01;6.90;;;2.23;;
7340;SDS011;6870;50.944;6.932;2023-05-07T11:51:29;2.70;;;2.07;;
7340;SDS011;6870;50.944;6.932;2023-05-07T11:53:58;2.43;;;1.53;;
7340;SDS011;6870;50.944;6.932;2023-05-07T11:56:26;3.40;;;2.20;;
7340;SDS011;6870;50.944;6.932;2023-05-07T11:58:54;3.60;;;1.73;;
7340;SDS011;6870;50.944;6.932;2023-05-07T12:01:23;1.93;;;1.73;;
7340;SDS011;6870;50.944;6.932;2023-05-07T12:03:51;2.73;;;2.30;;
7340;SDS011;6870;50.944;6.932;2023-05-07T12:06:19;3.70;;;2.23;;
7340;SDS011;6870;50.944;6.932;2023-05-07T12:08:47;2.83;;;2.10;;
7340;SDS011;6870;50.944;6.932;2023-05-07T12:11:16;6.13;;;2.23;;
7340;SDS011;6870;50.944;6.932;2023-05-07T12:13:51;5.17;;;1.93;;
7340;SDS011;6870;50.944;6.932;2023-05-07T12:16:26;4.73;;;2.10;;
7340;SDS011;6870;50.944;6.932;2023-05-07T12:18:54;2.20;;;1.47;;
7340;SDS011;6870;50.944;6.932;2023-05-07T12:21:25;3.17;;;2.10;;
7340;SDS011;6870;50.944;6.932;2023-05-07T12:23:53;2.70;;;1.80;;
7340;SDS011;6870;50.944;6.932;2023-05-07T12:26:21;4.73;;;1.93;;
7340;SDS011;6870;50.944;6.932;2023-05-07T12:28:50;2.87;;;1.60;;
7340;SDS011;6870;50.944;6.932;2023-05-07T12:31:18;2.00;;;1.80;;
7340;SDS011;6870;50.944;6.932;2023-05-07T12:33:48;2.20;;;1.70;;
7340;SDS011;6870;50.944;6.932;2023-05-07T12:36:16;4.47;;;1.83;;
7340;SDS011;6870;50.944;6.932;2023-05-07T12:38:44;3.17;;;1.83;;
7340;SDS011;6870;50.944;6.932;2023-05-07T12:41:12;2.23;;;1.80;;
7340;SDS011;6870;50.944;6.932;2023-05-07T12:43:42;2.17;;;1.67;;
7340;SDS011;6870;50.944;6.932;2023-05-07T12:46:12;1.93;;;1.57;;
7340;SDS011;6870;50.944;6.932;2023-05-07T12:48:43;2.20;;;1.50;;
7340;SDS011;6870;50.944;6.932;2023-05-07T12:51:14;3.10;;;1.90;;
7340;SDS011;6870;50.944;6.932;2023-05-07T12:53:43;3.50;;;1.40;;
7340;SDS011;6870;50.944;6.932;2023-05-07T12:56:11;1.60;;;1.33;;
7340;SDS011;6870;50.944;6.932;2023-05-07T12:58:39;2.40;;;1.60;;
7340;SDS011;6870;50.944;6.932;2023-05-07T13:01:07;3.20;;;1.77;;
7340;SDS011;6870;50.944;6.932;2023-05-07T13:03:38;3.13;;;1.63;;
7340;SDS011;6870;50.944;6.932;2023-05-07T13:06:07;2.53;;;1.93;;
7340;SDS011;6870;50.944;6.932;2023-05-07T13:08:40;2.27;;;2.00;;
7340;SDS011;6870;50.944;6.932;2023-05-07T13:11:10;2.60;;;1.60;;
7340;SDS011;6870;50.944;6.932;2023-05-07T13:13:39;3.27;;;1.90;;
7340;SDS011;6870;50.944;6.932;2023-05-07T13:16:09;1.77;;;1.50;;
7340;SDS011;6870;50.944;6.932;2023-05-07T13:18:39;3.67;;;1.50;;
7340;SDS011;6870;50.944;6.932;2023-05-07T13:21:10;2.50;;;1.80;;
7340;SDS011;6870;50.944;6.932;2023-05-07T13:23:40;2.80;;;2.23;;
7340;SDS011;6870;50.944;6.932;2023-05-07T13:26:09;1.77;;;1.67;;
7340;SDS011;6870;50.944;6.932;2023-05-07T13:28:51;2.23;;;1.87;;
7340;SDS011;6870;50.944;6.932;2023-05-07T13:31:20;2.57;;;1.70;;
7340;SDS011;6870;50.944;6.932;2023-05-07T13:33:48;2.10;;;1.70;;
7340;SDS011;6870;50.944;6.932;2023-05-07T13:36:16;2.00;;;1.80;;
7340;SDS011;6870;50.944;6.932;2023-05-07T13:38:45;2.30;;;1.63;;
7340;SDS011;6870;50.944;6.932;2023-05-07T13:41:13;1.90;;;1.70;;
7340;SDS011;6870;50.944;6.932;2023-05-07T13:43:42;2.80;;;1.80;;
7340;SDS011;6870;50.944;6.932;2023-05-07T13:46:10;2.47;;;1.77;;
7340;SDS011;6870;50.944;6.932;2023-05-07T13:48:38;4.90;;;2.63;;
7340;SDS011;6870;50.944;6.932;2023-05-07T13:51:06;2.47;;;1.67;;
7340;SDS011;6870;50.944;6.932;2023-05-07T13:53:34;2.20;;;1.80;;
7340;SDS011;6870;50.944;6.932;2023-05-07T13:56:04;2.40;;;1.57;;
7340;SDS011;6870;50.944;6.932;2023-05-07T13:58:32;2.33;;;2.10;;
7340;SDS011;6870;50.944;6.932;2023-05-07T14:01:05;2.23;;;1.80;;
7340;SDS011;6870;50.944;6.932;2023-05-07T14:03:33;2.70;;;1.97;;
7340;SDS011;6870;50.944;6.932;2023-05-07T14:06:04;2.10;;;1.60;;
7340;SDS011;6870;50.944;6.932;2023-05-07T14:08:32;2.40;;;1.63;;
7340;SDS011;6870;50.944;6.932;2023-05-07T14:11:00;3.80;;;2.00;;
7340;SDS011;6870;50.944;6.932;2023-05-07T14:13:29;2.13;;;1.67;;
7340;SDS011;6870;50.944;6.932;2023-05-07T14:15:58;2.30;;;2.03;;
7340;SDS011;6870;50.944;6.932;2023-05-07T14:18:26;2.03;;;1.57;;
7340;SDS011;6870;50.944;6.932;2023-05-07T14:20:55;2.50;;;1.67;;
7340;SDS011;6870;50.944;6.932;2023-05-07T14:23:23;2.30;;;1.90;;
7340;SDS011;6870;50.944;6.932;2023-05-07T14:25:52;2.27;;;1.67;;
7340;SDS011;6870;50.944;6.932;2023-05-07T14:28:21;1.90;;;1.70;;
7340;SDS011;6870;50.944;6.932;2023-05-07T14:30:50;3.00;;;1.83;;
7340;SDS011;6870;50.944;6.932;2023-05-07T14:33:18;2.53;;;1.70;;
7340;SDS011;6870;50.944;6.932;2023-05-07T14:35:46;2.30;;;2.10;;
7340;SDS011;6870;50.944;6.932;2023-05-07T14:38:15;2.47;;;1.90;;
7340;SDS011;6870;50.944;6.932;2023-05-07T14:40:44;2.40;;;2.00;;
7340;SDS011;6870;50.944;6.932;2023-05-07T14:43:12;2.23;;;1.70;;
7340;SDS011;6870;50.944;6.932;2023-05-07T14:45:40;3.80;;;1.47;;
7340;SDS011;6870;50.944;6.932;2023-05-07T14:48:10;1.90;;;1.60;;
7340;SDS011;6870;50.944;6.932;2023-05-07T14:50:41;1.93;;;1.70;;
7340;SDS011;6870;50.944;6.932;2023-05-07T14:53:09;4.20;;;2.10;;
7340;SDS011;6870;50.944;6.932;2023-05-07T14:55:37;2.40;;;2.20;;
7340;SDS011;6870;50.944;6.932;2023-05-07T14:58:05;1.67;;;1.53;;
7340;SDS011;6870;50.944;6.932;2023-05-07T15:00:33;2.93;;;1.87;;
7340;SDS011;6870;50.944;6.932;2023-05-07T15:03:04;2.37;;;1.87;;
7340;SDS011;6870;50.944;6.932;2023-05-07T15:05:37;3.57;;;2.17;;
7340;SDS011;6870;50.944;6.932;2023-05-07T15:08:05;2.67;;;1.90;;
7340;SDS011;6870;50.944;6.932;2023-05-07T15:10:34;2.20;;;1.90;;
7340;SDS011;6870;50.944;6.932;2023-05-07T15:13:07;2.00;;;1.80;;
7340;SDS011;6870;50.944;6.932;2023-05-07T15:15:39;3.00;;;2.07;;
7340;SDS011;6870;50.944;6.932;2023-05-07T15:18:08;3.60;;;2.30;;
7340;SDS011;6870;50.944;6.932;2023-05-07T15:20:38;2.07;;;1.83;;
7340;SDS011;6870;50.944;6.932;2023-05-07T15:23:06;3.63;;;2.37;;
7340;SDS011;6870;50.944;6.932;2023-05-07T15:25:38;2.70;;;2.30;;
7340;SDS011;6870;50.944;6.932;2023-05-07T15:28:06;2.20;;;1.73;;
7340;SDS011;6870;50.944;6.932;2023-05-07T15:30:34;4.23;;;2.30;;
7340;SDS011;6870;50.944;6.932;2023-05-07T15:33:02;2.83;;;2.07;;
7340;SDS011;6870;50.944;6.932;2023-05-07T15:35:31;3.00;;;2.30;;
7340;SDS011;6870;50.944;6.932;2023-05-07T15:38:01;2.60;;;1.70;;